createdAt,value
2023-01-15T00:00:43.328Z,-20295.66
2023-01-15T00:01:46.451Z,-20292.72
2023-01-15T00:02:49.646Z,-20294.19
2023-01-15T00:03:54.415Z,-20294.56
2023-01-15T00:04:57.498Z,-20295.31
2023-01-15T00:06:04.105Z,-20295.47
2023-01-15T00:07:07.220Z,-20294.19
2023-01-15T00:08:10.348Z,-20296.03
2023-01-15T00:09:17.071Z,-20295.31
2023-01-15T00:10:20.311Z,-20293.09
2023-01-15T00:11:24.031Z,-20292.91
2023-01-15T00:12:27.157Z,-20290.88
2023-01-15T00:13:30.632Z,-20291.59
2023-01-15T00:14:33.758Z,-20289.03
2023-01-15T00:15:36.901Z,-20289.75
2023-01-15T00:16:41.077Z,-20292.91
2023-01-15T00:17:44.318Z,-20291.41
2023-01-15T00:18:55.485Z,-20293.28
2023-01-15T00:19:58.856Z,-20293.81
2023-01-15T00:21:03.644Z,-20290.69
2023-01-15T00:22:07.008Z,-20288.84
2023-01-15T00:23:30.049Z,-20291.59
2023-01-15T00:24:51.769Z,-20293.09
2023-01-15T00:26:23.573Z,-20292.34
2023-01-15T00:27:42.055Z,-20291.25
2023-01-15T00:28:44.938Z,-20291.97
2023-01-15T00:29:47.818Z,-20292.72
2023-01-15T00:30:50.597Z,-20290.88
2023-01-15T00:32:02.587Z,-20294.19
2023-01-15T00:33:06.064Z,-20290.88
2023-01-15T00:34:08.945Z,-20290.13
2023-01-15T00:35:22.387Z,-20293.28
2023-01-15T00:36:25.991Z,-20291.97
2023-01-15T00:37:28.641Z,-20291.97
2023-01-15T00:38:31.457Z,-20291.97
2023-01-15T00:39:34.759Z,-20291.59
2023-01-15T00:40:37.335Z,-20291.59
2023-01-15T00:41:40.037Z,-20291.78
2023-01-15T00:42:43.208Z,-19334.59
2023-01-15T00:43:53.169Z,-18055.44
2023-01-15T00:44:55.808Z,-17097.16
2023-01-15T00:45:58.405Z,-16138.78
2023-01-15T00:47:01.214Z,-15500.25
2023-01-15T00:48:04.068Z,-14860.88
2023-01-15T00:49:06.609Z,-14541.50
2023-01-15T00:50:13.292Z,-14222.34
2023-01-15T00:51:15.936Z,-13901.28
2023-01-15T00:52:18.582Z,-13901.81
2023-01-15T00:53:21.219Z,-13262.25
2023-01-15T00:54:23.779Z,-13263.13
2023-01-15T00:55:26.533Z,-12944.03
2023-01-15T00:56:29.060Z,-11982.06
2023-01-15T00:57:31.815Z,-11662.13
2023-01-15T00:58:34.814Z,-11342.81
2023-01-15T00:59:37.308Z,-11023.03
2023-01-15T01:00:40.043Z,-10703.06
2023-01-15T01:01:42.822Z,-10382.88
2023-01-15T01:02:45.406Z,-10061.44
2023-01-15T01:03:49.222Z,-10382.25
2023-01-15T01:04:52.078Z,-10062.66
2023-01-15T01:05:54.740Z,-10382.69
2023-01-15T01:06:57.259Z,-11024.22
2023-01-15T01:08:00.383Z,-11024.31
2023-01-15T01:09:03.852Z,-10703.72
2023-01-15T01:10:07.460Z,-10703.28
2023-01-15T01:11:15.382Z,-11024.44
2023-01-15T01:12:17.910Z,-10702.88
2023-01-15T01:13:20.425Z,-11022.59
2023-01-15T01:14:23.085Z,-11343.03
2023-01-15T01:15:25.958Z,-11022.16
2023-01-15T01:16:33.647Z,-11342.59
2023-01-15T01:17:40.112Z,-11663.50
2023-01-15T01:18:42.634Z,-11662.81
2023-01-15T01:19:45.152Z,-11022.81
2023-01-15T01:20:47.668Z,-10703.41
2023-01-15T01:21:52.003Z,-10702.66
2023-01-15T01:22:56.085Z,-10062.66
2023-01-15T01:23:59.789Z,-10062.06
2023-01-15T01:25:02.311Z,-10382.37
2023-01-15T01:26:04.953Z,-10381.53
2023-01-15T01:27:07.481Z,-10382.06
2023-01-15T01:28:10.115Z,-10381.84
2023-01-15T01:29:14.224Z,-10382.47
2023-01-15T01:30:16.956Z,-10062.56
2023-01-15T01:31:21.852Z,-10062.88
2023-01-15T01:32:24.530Z,-10062.16
2023-01-15T01:33:27.170Z,-9740.84
2023-01-15T01:34:30.289Z,-10062.38
2023-01-15T01:35:33.054Z,-9421.56
2023-01-15T01:36:38.111Z,-9101.84
2023-01-15T01:37:40.728Z,-9102.59
2023-01-15T01:38:43.371Z,-8781.53
2023-01-15T01:39:47.702Z,-8783.06
2023-01-15T01:40:50.214Z,-8462.66
2023-01-15T01:41:52.747Z,-8141.56
2023-01-15T01:42:55.381Z,-8141.31
2023-01-15T01:44:00.790Z,-8141.31
2023-01-15T01:45:17.823Z,-8783.16
2023-01-15T01:46:22.049Z,-8781.97
2023-01-15T01:47:28.150Z,-8782.44
2023-01-15T01:48:34.634Z,-8461.88
2023-01-15T01:49:40.285Z,-8461.97
2023-01-15T01:50:43.991Z,-8141.72
2023-01-15T01:52:02.003Z,-7821.88
2023-01-15T01:53:13.394Z,-7180.97
2023-01-15T01:54:21.568Z,-7180.34
2023-01-15T01:55:26.839Z,-7179.81
2023-01-15T01:56:31.642Z,-7820.56
2023-01-15T01:57:35.126Z,-8140.13
2023-01-15T01:58:39.206Z,-8140.63
2023-01-15T01:59:42.442Z,-8140.78
2023-01-15T02:00:51.102Z,-8461.19
2023-01-15T02:01:54.763Z,-8140.47
2023-01-15T02:02:58.655Z,-8140.97
2023-01-15T02:04:06.579Z,-7820.81
2023-01-15T02:05:12.463Z,-7500.75
2023-01-15T02:06:16.174Z,-7179.81
2023-01-15T02:07:20.393Z,-7500.50
2023-01-15T02:08:24.096Z,-7181.19
2023-01-15T02:09:27.222Z,-6859.84
2023-01-15T02:10:30.339Z,-6539.06
2023-01-15T02:11:34.910Z,-6538.72
2023-01-15T02:12:40.545Z,-7180.13
2023-01-15T02:14:13.069Z,-7180.34
2023-01-15T02:15:23.511Z,-6538.22
2023-01-15T02:16:37.186Z,-6860.06
2023-01-15T02:17:49.799Z,-6218.50
2023-01-15T02:19:25.317Z,-5577.06
2023-01-15T02:20:46.923Z,-5898.31
2023-01-15T02:22:08.281Z,-5898.53
2023-01-15T02:23:29.884Z,-5898.53
2023-01-15T02:24:58.204Z,-5578.34
2023-01-15T02:26:23.049Z,-5257.28
2023-01-15T02:27:27.251Z,-4936.19
2023-01-15T02:28:33.974Z,-4936.34
2023-01-15T02:29:48.132Z,-4615.31
2023-01-15T02:30:58.455Z,-4295.03
2023-01-15T02:32:07.824Z,-3653.47
2023-01-15T02:33:19.101Z,-2691.22
2023-01-15T02:34:29.779Z,-2370.28
2023-01-15T02:35:38.421Z,-2049.38
2023-01-15T02:36:48.263Z,-765.28
2023-01-15T02:38:02.382Z,-444.16
2023-01-15T02:39:08.907Z,-123.13
2023-01-15T02:40:13.729Z,198.09
2023-01-15T02:41:22.352Z,198.00
2023-01-15T02:42:27.683Z,519.31
2023-01-15T02:43:35.721Z,519.28
2023-01-15T02:44:44.493Z,1161.59
2023-01-15T02:45:54.552Z,1482.81
2023-01-15T02:46:59.443Z,2125.44
2023-01-15T02:48:10.526Z,2125.41
2023-01-15T02:49:18.524Z,2768.16
2023-01-15T02:50:32.689Z,3410.97
2023-01-15T02:51:44.692Z,4375.44
2023-01-15T02:52:52.166Z,4054.00
2023-01-15T02:54:01.733Z,3732.50
2023-01-15T02:55:22.495Z,5661.63
2023-01-15T02:56:33.231Z,6305.09
2023-01-15T02:57:39.589Z,6305.16
2023-01-15T02:58:44.994Z,7270.13
2023-01-15T02:59:51.934Z,7270.34
2023-01-15T03:00:57.580Z,8235.38
2023-01-15T03:02:04.179Z,9844.63
2023-01-15T03:03:31.298Z,10166.97
2023-01-15T03:04:55.403Z,10167.38
2023-01-15T03:06:09.245Z,11455.03
2023-01-15T03:07:27.696Z,12100.09
2023-01-15T03:08:31.519Z,12743.28
2023-01-15T03:09:35.621Z,12742.94
2023-01-15T03:11:03.222Z,12743.97
2023-01-15T03:12:16.178Z,13387.91
2023-01-15T03:13:43.436Z,12744.16
2023-01-15T03:15:11.381Z,13065.31
2023-01-15T03:16:38.638Z,12098.63
2023-01-15T03:17:52.668Z,12097.81
2023-01-15T03:19:22.811Z,11453.81
2023-01-15T03:20:29.507Z,11452.53
2023-01-15T03:21:56.151Z,11130.31
2023-01-15T03:23:04.790Z,11452.91
2023-01-15T03:24:10.569Z,11452.75
2023-01-15T03:25:26.154Z,11130.59
2023-01-15T03:26:31.071Z,10808.22
2023-01-15T03:27:34.554Z,10485.69
2023-01-15T03:28:39.832Z,10486.00
2023-01-15T03:29:48.255Z,9842.75
2023-01-15T03:30:51.894Z,10808.22
2023-01-15T03:31:55.209Z,11774.94
2023-01-15T03:32:58.200Z,13385.53
2023-01-15T03:34:01.330Z,14030.34
2023-01-15T03:35:10.799Z,15320.19
2023-01-15T03:36:19.086Z,16286.97
2023-01-15T03:37:25.802Z,17900.03
2023-01-15T03:38:40.326Z,19837.47
2023-01-15T03:39:48.257Z,21127.84
2023-01-15T03:40:58.569Z,22418.53
2023-01-15T03:42:20.412Z,22742.84
2023-01-15T03:43:50.911Z,24036.50
2023-01-15T03:45:12.618Z,25976.94
2023-01-15T03:46:49.944Z,26949.22
2023-01-15T03:48:01.115Z,27595.91
2023-01-15T03:49:31.822Z,28566.88
2023-01-15T03:50:49.953Z,28567.09
2023-01-15T03:52:11.790Z,29855.38
2023-01-15T03:53:17.433Z,29533.63
2023-01-15T03:54:50.071Z,28566.44
2023-01-15T03:56:11.555Z,28886.94
2023-01-15T03:57:28.490Z,28242.03
2023-01-15T03:59:17.683Z,27918.53
2023-01-15T04:00:45.042Z,29213.59
2023-01-15T04:01:50.523Z,29535.19
2023-01-15T04:03:00.410Z,29860.63
2023-01-15T04:04:07.769Z,30184.06
2023-01-15T04:05:11.570Z,28890.44
2023-01-15T04:06:15.652Z,29212.69
2023-01-15T04:07:19.974Z,29212.69
2023-01-15T04:08:24.295Z,29211.38
2023-01-15T04:09:27.907Z,31476.09
2023-01-15T04:10:34.138Z,30831.00
2023-01-15T04:11:39.657Z,31476.56
2023-01-15T04:12:43.746Z,31800.09
2023-01-15T04:13:47.223Z,31152.13
2023-01-15T04:15:16.749Z,31475.13
2023-01-15T04:16:25.630Z,31476.81
2023-01-15T04:17:28.869Z,31150.22
2023-01-15T04:18:31.999Z,31149.97
2023-01-15T04:19:35.258Z,30502.16
2023-01-15T04:20:45.434Z,30179.91
2023-01-15T04:21:49.399Z,30823.69
2023-01-15T04:22:52.656Z,31472.25
2023-01-15T04:23:55.883Z,31793.78
2023-01-15T04:24:59.123Z,31792.56
2023-01-15T04:26:02.482Z,32115.78
2023-01-15T04:27:05.969Z,30821.59
2023-01-15T04:28:10.173Z,30495.66
2023-01-15T04:29:13.528Z,29201.81
2023-01-15T04:30:17.850Z,28554.31
2023-01-15T04:31:22.767Z,28228.34
2023-01-15T04:32:25.659Z,27906.09
2023-01-15T04:33:28.658Z,27581.72
2023-01-15T04:34:31.421Z,27582.16
2023-01-15T04:35:35.263Z,26289.78
2023-01-15T04:36:38.142Z,24995.72
2023-01-15T04:37:40.902Z,24995.72
2023-01-15T04:38:43.547Z,25640.56
2023-01-15T04:39:47.387Z,25319.38
2023-01-15T04:41:08.561Z,24994.03
2023-01-15T04:42:33.520Z,24350.91
2023-01-15T04:43:54.763Z,26610.56
2023-01-15T04:44:57.354Z,27257.63
2023-01-15T04:46:00.523Z,28226.22
2023-01-15T04:47:03.476Z,28874.22
2023-01-15T04:48:06.167Z,29520.34
2023-01-15T04:49:11.814Z,29848.56
2023-01-15T04:50:14.332Z,31466.47
2023-01-15T04:51:17.206Z,32434.53
2023-01-15T04:52:19.808Z,32434.53
2023-01-15T04:53:22.328Z,32109.38
2023-01-15T04:54:25.143Z,31786.47
2023-01-15T04:55:27.887Z,32432.53
2023-01-15T04:56:30.497Z,33080.47
2023-01-15T04:57:33.050Z,33404.72
2023-01-15T04:58:35.820Z,33080.22
2023-01-15T04:59:38.337Z,34052.03
2023-01-15T05:00:41.090Z,33727.44
2023-01-15T05:01:57.972Z,34061.72
2023-01-15T05:03:05.543Z,35678.88
2023-01-15T05:04:08.199Z,36644.25
2023-01-15T05:05:10.952Z,36966.88
2023-01-15T05:06:14.601Z,36324.16
2023-01-15T05:07:17.097Z,36645.09
2023-01-15T05:08:19.739Z,35346.41
2023-01-15T05:09:22.257Z,35022.25
2023-01-15T05:10:24.781Z,35024.69
2023-01-15T05:11:28.392Z,36324.72
2023-01-15T05:12:31.026Z,38585.94
2023-01-15T05:13:34.022Z,39237.69
2023-01-15T05:14:36.665Z,38914.66
2023-01-15T05:15:40.990Z,38911.94
2023-01-15T05:16:44.463Z,38267.72
2023-01-15T05:17:47.240Z,39236.19
2023-01-15T05:18:49.746Z,39885.03
2023-01-15T05:19:52.388Z,39241.06
2023-01-15T05:20:54.904Z,40212.75
2023-01-15T05:21:57.425Z,37944.72
2023-01-15T05:22:59.947Z,38924.63
2023-01-15T05:24:04.508Z,38591.34
2023-01-15T05:25:07.272Z,36319.66
2023-01-15T05:26:10.033Z,36641.41
2023-01-15T05:27:12.554Z,36002.34
2023-01-15T05:28:15.071Z,36967.16
2023-01-15T05:29:17.590Z,37287.19
2023-01-15T05:30:20.111Z,35990.13
2023-01-15T05:31:24.338Z,34696.22
2023-01-15T05:32:26.832Z,35347.22
2023-01-15T05:33:29.234Z,34380.09
2023-01-15T05:34:31.754Z,35676.66
2023-01-15T05:35:34.166Z,36964.56
2023-01-15T05:36:37.747Z,36316.28
2023-01-15T05:37:40.402Z,36640.28
2023-01-15T05:38:43.050Z,38267.13
2023-01-15T05:39:45.566Z,37937.06
2023-01-15T05:40:48.085Z,36316.84
2023-01-15T05:41:50.991Z,35993.44
2023-01-15T05:42:54.208Z,37614.72
2023-01-15T05:43:59.737Z,37941.78
2023-01-15T05:45:02.496Z,38262.38
2023-01-15T05:46:05.184Z,37937.66
2023-01-15T05:47:07.977Z,37936.78
2023-01-15T05:48:10.791Z,38260.59
2023-01-15T05:49:16.185Z,37288.91
2023-01-15T05:50:19.064Z,37611.53
2023-01-15T05:51:22.678Z,37284.88
2023-01-15T05:52:25.426Z,36958.56
2023-01-15T05:53:29.267Z,38905.31
2023-01-15T05:54:36.229Z,38906.50
2023-01-15T05:55:39.232Z,38905.91
2023-01-15T05:56:42.716Z,38905.31
2023-01-15T05:57:45.719Z,40524.50
2023-01-15T05:58:48.732Z,41823.75
2023-01-15T05:59:53.639Z,42145.53
2023-01-15T06:00:57.143Z,41499.38
2023-01-15T06:02:00.619Z,42146.84
2023-01-15T06:03:03.748Z,43444.03
2023-01-15T06:04:07.573Z,44418.03
2023-01-15T06:05:10.691Z,43443.34
2023-01-15T06:06:15.492Z,42796.06
2023-01-15T06:07:18.733Z,42795.41
2023-01-15T06:08:23.893Z,44091.38
2023-01-15T06:09:28.472Z,44092.75
2023-01-15T06:10:31.577Z,46362.44
2023-01-15T06:11:34.816Z,47011.56
2023-01-15T06:12:37.939Z,46683.50
2023-01-15T06:13:41.666Z,47334.88
2023-01-15T06:14:44.791Z,46682.41
2023-01-15T06:15:47.942Z,47981.50
2023-01-15T06:16:51.265Z,48632.34
2023-01-15T06:17:54.547Z,48958.41
2023-01-15T06:19:04.713Z,49287.59
2023-01-15T06:20:08.436Z,50914.03
2023-01-15T06:21:13.148Z,50586.16
2023-01-15T06:22:16.359Z,49935.66
2023-01-15T06:23:20.568Z,49612.59
2023-01-15T06:24:24.518Z,49285.28
2023-01-15T06:25:28.000Z,48305.56
2023-01-15T06:26:31.248Z,48630.44
2023-01-15T06:27:34.364Z,48629.69
2023-01-15T06:28:37.843Z,47654.06
2023-01-15T06:29:41.086Z,48300.25
2023-01-15T06:30:44.331Z,49596.97
2023-01-15T06:31:48.363Z,50897.97
2023-01-15T06:32:51.534Z,51871.91
2023-01-15T06:33:55.026Z,50897.16
2023-01-15T06:34:57.779Z,51883.78
2023-01-15T06:36:04.856Z,55793.84
2023-01-15T06:37:07.738Z,59682.09
2023-01-15T06:38:10.387Z,58066.72
2023-01-15T06:39:13.044Z,60343.22
2023-01-15T06:40:15.782Z,60342.25
2023-01-15T06:41:39.905Z,60026.94
2023-01-15T06:43:00.957Z,62953.78
2023-01-15T06:44:22.318Z,62636.72
2023-01-15T06:45:43.520Z,63925.44
2023-01-15T06:47:06.911Z,66574.03
2023-01-15T06:48:09.486Z,71767.31
2023-01-15T06:49:12.122Z,69176.00
2023-01-15T06:50:15.964Z,70464.88
2023-01-15T06:51:21.201Z,70142.69
2023-01-15T06:52:26.179Z,70473.91
2023-01-15T06:53:28.692Z,71104.66
2023-01-15T06:54:31.927Z,68466.78
2023-01-15T06:55:34.425Z,66177.66
2023-01-15T06:56:36.967Z,61936.69
2023-01-15T06:57:40.300Z,58029.34
2023-01-15T06:58:43.449Z,56726.41
2023-01-15T06:59:46.447Z,55748.75
2023-01-15T07:00:55.510Z,54122.00
2023-01-15T07:01:58.224Z,54772.25
2023-01-15T07:03:01.818Z,55096.53
2023-01-15T07:04:04.674Z,53468.41
2023-01-15T07:05:08.388Z,52170.56
2023-01-15T07:06:13.581Z,52820.09
2023-01-15T07:07:17.657Z,51517.09
2023-01-15T07:08:20.273Z,51836.66
2023-01-15T07:09:22.921Z,51187.41
2023-01-15T07:10:25.458Z,50213.13
2023-01-15T07:11:28.217Z,50864.63
2023-01-15T07:12:30.761Z,51513.84
2023-01-15T07:13:34.100Z,50224.63
2023-01-15T07:14:36.985Z,51840.31
2023-01-15T07:15:40.818Z,49914.38
2023-01-15T07:16:43.349Z,53138.38
2023-01-15T07:17:45.990Z,50537.03
2023-01-15T07:18:48.506Z,48907.50
2023-01-15T07:19:51.025Z,47285.00
2023-01-15T07:20:57.743Z,47290.59
2023-01-15T07:22:00.270Z,47610.56
2023-01-15T07:23:02.787Z,47610.94
2023-01-15T07:24:05.785Z,48585.25
2023-01-15T07:25:09.268Z,48261.44
2023-01-15T07:26:11.785Z,49560.19
2023-01-15T07:27:14.337Z,49560.59
2023-01-15T07:28:16.828Z,49560.59
2023-01-15T07:29:19.370Z,48585.63
2023-01-15T07:30:21.871Z,47611.31
2023-01-15T07:31:24.437Z,47612.06
2023-01-15T07:32:27.151Z,47286.47
2023-01-15T07:33:29.795Z,46313.28
2023-01-15T07:36:13.596Z,46637.66
2023-01-15T07:37:16.004Z,45662.44
2023-01-15T07:38:18.641Z,45664.59
2023-01-15T07:39:21.287Z,45342.44
2023-01-15T07:40:23.801Z,44042.69
2023-01-15T07:41:44.928Z,43394.41
2023-01-15T07:43:05.806Z,41778.38
2023-01-15T07:44:29.471Z,42100.13
2023-01-15T07:45:50.677Z,42421.16
2023-01-15T07:47:11.694Z,42746.22
2023-01-15T07:48:32.455Z,41454.72
2023-01-15T07:49:47.462Z,41124.94
2023-01-15T07:50:49.981Z,41123.66
2023-01-15T07:51:52.745Z,40797.22
2023-01-15T07:52:55.398Z,40150.81
2023-01-15T07:53:58.146Z,42419.53
2023-01-15T07:55:01.420Z,43395.09
2023-01-15T07:56:04.290Z,44691.09
2023-01-15T07:57:07.399Z,45015.31
2023-01-15T07:58:10.410Z,45663.16
2023-01-15T07:59:13.400Z,47609.81
2023-01-15T08:00:21.572Z,48262.97
2023-01-15T08:01:24.637Z,50856.97
2023-01-15T08:02:27.803Z,51833.34
2023-01-15T08:03:30.814Z,52481.81
2023-01-15T08:04:34.045Z,53454.88
2023-01-15T08:05:37.175Z,55405.91
2023-01-15T08:06:40.405Z,55404.16
2023-01-15T08:07:44.487Z,54756.59
2023-01-15T08:08:47.614Z,57354.78
2023-01-15T08:09:50.852Z,61588.78
2023-01-15T08:11:12.455Z,66153.28
2023-01-15T08:12:34.053Z,69419.22
2023-01-15T08:13:55.669Z,75623.72
2023-01-15T08:15:14.168Z,75950.56
2023-01-15T08:16:17.664Z,78589.50
2023-01-15T08:17:20.981Z,83499.06
2023-01-15T08:18:24.103Z,85792.53
2023-01-15T08:19:30.106Z,87099.47
2023-01-15T08:20:35.270Z,88746.81
2023-01-15T08:21:38.391Z,90702.00
2023-01-15T08:22:41.644Z,95300.31
2023-01-15T08:23:46.682Z,97272.44
2023-01-15T08:24:49.919Z,96288.19
2023-01-15T08:25:53.163Z,96938.28
2023-01-15T08:26:56.401Z,97930.59
2023-01-15T08:28:03.476Z,99587.34
2023-01-15T08:29:06.726Z,102211.72
2023-01-15T08:30:13.685Z,106187.50
2023-01-15T08:31:16.965Z,115430.53
2023-01-15T08:32:20.290Z,126362.50
2023-01-15T08:33:23.650Z,136339.81
2023-01-15T08:34:27.978Z,146667.69
2023-01-15T08:35:31.573Z,146702.66
2023-01-15T08:36:34.573Z,146722.00
2023-01-15T08:37:37.710Z,146701.47
2023-01-15T08:38:40.457Z,146738.88
2023-01-15T08:39:43.342Z,146749.72
2023-01-15T08:41:02.541Z,146730.44
2023-01-15T08:42:05.303Z,146719.53
2023-01-15T08:43:07.945Z,146697.84
2023-01-15T08:44:11.191Z,146677.31
2023-01-15T08:45:14.358Z,146689.41
2023-01-15T08:46:17.072Z,146711.13
2023-01-15T08:47:19.831Z,146741.28
2023-01-15T08:48:22.399Z,146714.72
2023-01-15T08:49:25.048Z,146744.91
2023-01-15T08:50:27.641Z,146725.63
2023-01-15T08:51:30.204Z,146772.69
2023-01-15T08:52:32.727Z,146759.41
2023-01-15T08:53:35.727Z,146782.31
2023-01-15T08:54:38.248Z,146789.59
2023-01-15T08:55:41.127Z,146917.59
2023-01-15T08:56:43.652Z,146994.91
2023-01-15T08:57:46.413Z,147054.09
2023-01-15T08:58:48.940Z,147131.47
2023-01-15T08:59:51.572Z,147154.44
2023-01-15T09:00:54.200Z,147179.84
2023-01-15T09:01:56.760Z,147159.28
2023-01-15T09:02:59.259Z,147063.75
2023-01-15T09:04:02.137Z,147042.00
2023-01-15T09:05:05.196Z,146996.09
2023-01-15T09:06:08.104Z,146918.81
2023-01-15T09:07:11.563Z,146880.13
2023-01-15T09:08:14.257Z,146814.91
2023-01-15T09:09:18.959Z,146769.06
2023-01-15T09:10:22.277Z,146812.50
2023-01-15T09:11:24.790Z,146800.44
2023-01-15T09:12:27.583Z,146769.06
2023-01-15T09:13:31.059Z,146773.88
2023-01-15T09:15:00.400Z,146770.28
2023-01-15T09:16:03.104Z,146796.84
2023-01-15T09:17:09.579Z,146846.31
2023-01-15T09:18:12.832Z,146895.84
2023-01-15T09:19:15.342Z,146935.69
2023-01-15T09:20:17.981Z,146967.09
2023-01-15T09:21:21.013Z,146986.44
2023-01-15T09:22:23.623Z,147008.16
2023-01-15T09:23:26.188Z,147058.94
2023-01-15T09:24:28.786Z,147127.84
2023-01-15T09:25:31.450Z,147138.72
2023-01-15T09:26:39.473Z,147240.25
2023-01-15T09:27:42.353Z,147240.25
2023-01-15T09:28:44.875Z,147295.88
2023-01-15T09:29:47.520Z,147168.94
2023-01-15T09:30:50.572Z,147239.03
2023-01-15T09:31:53.159Z,147283.81
2023-01-15T09:32:56.175Z,147303.13
2023-01-15T09:33:59.152Z,147344.28
2023-01-15T09:35:02.525Z,147270.47
2023-01-15T09:36:05.395Z,147206.41
2023-01-15T09:37:08.164Z,147196.75
2023-01-15T09:38:18.837Z,147224.56
2023-01-15T09:39:21.605Z,147235.41
2023-01-15T09:40:51.152Z,147310.41
2023-01-15T09:42:08.470Z,147305.53
2023-01-15T09:43:50.042Z,147380.53
2023-01-15T09:45:19.353Z,147351.50
2023-01-15T09:47:01.091Z,147329.72
2023-01-15T09:48:06.253Z,147404.75
2023-01-15T09:49:17.902Z,147351.50
2023-01-15T09:50:23.175Z,147233.00
2023-01-15T09:51:33.873Z,147170.13
2023-01-15T09:52:42.526Z,147074.63
2023-01-15T09:53:56.785Z,147117.00
2023-01-15T09:55:30.275Z,147136.31
2023-01-15T09:56:37.597Z,147102.41
2023-01-15T09:57:41.308Z,147136.31
2023-01-15T09:58:44.315Z,147283.81
2023-01-15T09:59:49.712Z,147235.41
2023-01-15T10:00:52.843Z,147149.63
2023-01-15T10:01:56.074Z,147091.56
2023-01-15T10:03:05.990Z,147074.63
2023-01-15T10:04:27.080Z,147038.38
2023-01-15T10:05:36.290Z,146971.94
2023-01-15T10:06:49.243Z,146916.41
2023-01-15T10:07:52.371Z,146863.25
2023-01-15T10:09:03.404Z,146846.31
2023-01-15T10:10:14.957Z,146814.91
2023-01-15T10:11:48.554Z,146798.03
2023-01-15T10:12:57.902Z,146789.59
2023-01-15T10:14:06.900Z,146781.13
2023-01-15T10:15:28.284Z,146730.44
2023-01-15T10:16:36.778Z,146691.81
2023-01-15T10:17:47.658Z,146697.84
2023-01-15T10:18:52.263Z,146643.53
2023-01-15T10:19:57.429Z,146580.78
2023-01-15T10:21:32.347Z,146641.13
2023-01-15T10:23:01.389Z,146571.13
2023-01-15T10:24:11.112Z,146524.03
2023-01-15T10:25:25.274Z,146434.78
2023-01-15T10:26:43.394Z,142575.06
2023-01-15T10:27:51.567Z,121219.25
2023-01-15T10:29:10.403Z,104406.94
2023-01-15T10:30:26.361Z,87321.25
2023-01-15T10:31:48.446Z,76519.22
2023-01-15T10:33:02.445Z,72268.72
2023-01-15T10:34:36.453Z,70636.16
2023-01-15T10:35:55.166Z,70954.72
2023-01-15T10:37:07.170Z,68676.34
2023-01-15T10:38:17.139Z,63783.16
2023-01-15T10:39:30.456Z,59218.56
2023-01-15T10:40:50.978Z,53366.03
2023-01-15T10:42:05.380Z,47520.31
2023-01-15T10:43:46.664Z,41048.00
2023-01-15T10:44:55.424Z,36527.56
2023-01-15T10:46:01.696Z,32682.41
2023-01-15T10:47:12.714Z,43411.06
2023-01-15T10:48:27.711Z,72474.41
2023-01-15T10:49:31.436Z,125961.78
2023-01-15T10:50:37.362Z,146971.94
2023-01-15T10:52:06.237Z,147161.69
2023-01-15T10:53:17.641Z,147276.56
2023-01-15T10:54:26.684Z,147505.16
2023-01-15T10:55:58.367Z,147511.19
2023-01-15T10:57:27.406Z,147516.03
2023-01-15T10:58:52.726Z,147608.03
2023-01-15T11:00:00.250Z,147615.28
2023-01-15T11:01:13.809Z,147276.56
2023-01-15T11:02:25.340Z,147114.56
2023-01-15T11:03:38.932Z,146903.09
2023-01-15T11:04:41.856Z,146808.91
2023-01-15T11:05:47.937Z,146684.56
2023-01-15T11:06:50.699Z,146621.78
2023-01-15T11:08:26.405Z,146551.81
2023-01-15T11:09:22.739Z,146464.94
2023-01-15T11:10:25.615Z,134158.44
2023-01-15T11:12:20.194Z,100165.31
2023-01-15T11:13:44.100Z,85861.22
2023-01-15T11:15:05.965Z,125250.03
2023-01-15T11:16:35.912Z,146901.88
2023-01-15T11:18:04.494Z,146864.44
2023-01-15T11:19:39.186Z,146817.34
2023-01-15T11:20:46.737Z,146953.84
2023-01-15T11:21:51.300Z,146905.50
2023-01-15T11:22:55.864Z,146897.06
2023-01-15T11:24:00.543Z,146744.91
2023-01-15T11:25:04.261Z,146712.31
2023-01-15T11:26:07.389Z,130333.13
2023-01-15T11:27:16.749Z,104875.81
2023-01-15T11:28:31.024Z,82524.56
2023-01-15T11:29:39.306Z,76274.94
2023-01-15T11:30:42.670Z,61897.66
2023-01-15T11:31:45.187Z,45324.66
2023-01-15T11:32:56.108Z,33665.25
2023-01-15T11:34:03.547Z,23010.44
2023-01-15T11:35:09.194Z,13996.53
2023-01-15T11:36:23.728Z,6291.81
2023-01-15T11:37:27.689Z,1165.22
2023-01-15T11:38:42.557Z,-1715.06
2023-01-15T11:39:53.610Z,-5872.22
2023-01-15T11:41:02.715Z,-8108.72
2023-01-15T11:42:35.129Z,-10985.78
2023-01-15T11:43:56.249Z,-11624.59
2023-01-15T11:45:17.371Z,-12584.88
2023-01-15T11:46:49.045Z,-13548.28
2023-01-15T11:48:11.741Z,-12910.03
2023-01-15T11:49:38.372Z,-13229.06
2023-01-15T11:51:02.372Z,-12907.78
2023-01-15T11:52:09.214Z,-13866.44
2023-01-15T11:53:22.443Z,-14505.16
2023-01-15T11:54:26.644Z,-14824.84
2023-01-15T11:55:29.745Z,-14504.06
2023-01-15T11:56:34.901Z,-14824.72
2023-01-15T11:57:39.117Z,-14505.31
2023-01-15T11:58:45.600Z,-14506.69
2023-01-15T11:59:50.149Z,-14187.50
2023-01-15T12:00:56.268Z,-14509.28
2023-01-15T12:02:30.240Z,-15157.66
2023-01-15T12:03:37.069Z,-14203.56
2023-01-15T12:04:55.357Z,-11964.78
2023-01-15T12:06:06.007Z,-10364.22
2023-01-15T12:07:14.527Z,-8762.53
2023-01-15T12:08:42.721Z,-6524.06
2023-01-15T12:10:15.735Z,-6205.25
2023-01-15T12:11:36.613Z,-4925.63
2023-01-15T12:13:12.009Z,-2362.28
2023-01-15T12:15:00.259Z,-439.69
2023-01-15T12:16:07.012Z,1484.22
2023-01-15T12:17:19.224Z,2446.47
2023-01-15T12:18:55.340Z,4692.69
2023-01-15T12:20:04.227Z,5013.84
2023-01-15T12:21:43.946Z,6298.31
2023-01-15T12:23:30.388Z,7264.50
2023-01-15T12:25:12.175Z,17582.50
2023-01-15T12:26:32.270Z,42526.72
2023-01-15T12:27:53.924Z,61076.59
2023-01-15T12:29:22.603Z,67592.66
2023-01-15T12:30:31.839Z,64364.50
2023-01-15T12:31:42.419Z,79780.88
2023-01-15T12:32:53.560Z,94296.25
2023-01-15T12:34:01.493Z,120131.41
2023-01-15T12:35:11.688Z,147158.06
2023-01-15T12:36:25.143Z,147213.69
2023-01-15T12:37:32.943Z,147237.84
2023-01-15T12:38:50.337Z,147402.28
2023-01-15T12:40:04.510Z,147350.31
2023-01-15T12:41:12.297Z,147454.31
2023-01-15T12:42:39.178Z,147467.59
2023-01-15T12:44:04.877Z,147430.09
2023-01-15T12:45:20.461Z,147308.00
2023-01-15T12:46:30.283Z,147219.72
2023-01-15T12:48:10.747Z,147291.03
2023-01-15T12:49:29.116Z,147312.81
2023-01-15T12:50:47.895Z,147392.63
2023-01-15T12:52:15.001Z,147431.31
2023-01-15T12:53:22.565Z,147431.31
2023-01-15T12:54:32.887Z,147416.81
2023-01-15T12:55:45.363Z,147268.06
2023-01-15T12:56:56.242Z,147230.59
2023-01-15T12:58:00.933Z,147138.72
2023-01-15T12:59:07.168Z,147087.94
2023-01-15T13:00:13.777Z,147046.88
2023-01-15T13:01:24.286Z,146963.50
2023-01-15T13:02:54.370Z,146940.53
2023-01-15T13:04:15.819Z,146894.66
2023-01-15T13:05:22.574Z,146892.22
2023-01-15T13:06:28.726Z,146887.41
2023-01-15T13:07:40.718Z,146905.50
2023-01-15T13:08:57.260Z,146905.50
2023-01-15T13:10:07.510Z,146895.84
2023-01-15T13:11:12.734Z,146870.47
2023-01-15T13:12:16.831Z,146866.88
2023-01-15T13:13:23.181Z,146857.22
2023-01-15T13:14:26.047Z,146848.72
2023-01-15T13:15:35.988Z,146842.69
2023-01-15T13:16:49.815Z,146865.66
2023-01-15T13:18:05.537Z,146839.09
2023-01-15T13:19:22.820Z,146846.31
2023-01-15T13:20:40.223Z,146840.28